Time;durP1;ratioP1;P1;durP2;ratioP2;P2;SDS_P1;SDS_P2;PMS_P1;PMS_P2;Temp;Humidity;BMP_temperature;BMP_pressure;BME280_temperature;BME280_humidity;BME280_pressure;Samples;Min_cycle;Max_cycle;Signal;HPM_P1;HPM_P2
2022/01/04 00:02:10;;;;;;;1.30;1.15;;;10.40;74.90;;;9.76;59.83;94147.38;5076232;28;20203;-88
2022/01/04 00:04:38;;;;;;;1.50;1.40;;;10.40;74.90;;;9.82;59.85;94148.34;5076332;28;20218;-88
2022/01/04 00:07:05;;;;;;;2.95;1.50;;;10.40;74.90;;;9.83;59.90;94159.66;5060280;28;20202;-88
2022/01/04 00:09:35;;;;;;;2.95;1.60;;;10.40;74.90;;;9.78;59.79;94149.78;5059541;28;20210;-88
2022/01/04 00:14:48;;;;;;;1.85;1.20;;;10.40;74.90;;;9.79;59.65;94154.03;5078992;28;20225;-88
2022/01/04 00:17:16;;;;;;;3.78;1.40;;;10.30;74.80;;;9.77;59.66;94148.97;5076260;28;20264;-88
2022/01/04 00:19:43;;;;;;;1.90;1.38;;;10.40;74.90;;;9.79;59.87;94156.66;5075992;28;20222;-88
2022/01/04 00:22:10;;;;;;;1.85;1.40;;;10.40;75.60;;;9.78;59.75;94136.69;5076363;28;20232;-88
2022/01/04 00:24:37;;;;;;;2.00;1.40;;;10.40;74.90;;;9.78;60.01;94128.84;5075326;28;20222;-89
2022/01/04 00:27:05;;;;;;;2.33;1.40;;;10.30;74.80;;;9.77;59.97;94133.25;5093259;28;20656;-88
2022/01/04 00:29:32;;;;;;;1.42;1.30;;;10.30;74.80;;;9.76;59.75;94123.81;5076298;28;20260;-88
2022/01/04 00:32:01;;;;;;;2.47;1.50;;;10.30;74.80;;;9.75;60.10;94122.19;5072889;28;20204;-88
2022/01/04 00:34:28;;;;;;;1.90;1.50;;;10.30;74.80;;;9.72;59.85;94111.34;5056001;28;20298;-88
2022/01/04 00:36:55;;;;;;;2.35;1.38;;;10.30;74.80;;;9.72;59.79;94108.72;5072739;28;20231;-88
2022/01/04 00:39:22;;;;;;;1.92;1.38;;;10.40;74.90;;;9.69;59.95;94109.94;5056213;28;20335;-88
2022/01/04 00:41:50;;;;;;;1.27;1.17;;;10.30;74.80;;;9.67;59.74;94100.69;5056994;28;20203;-88
2022/01/04 00:44:17;;;;;;;1.45;1.30;;;10.30;74.80;;;9.60;59.91;94083.16;5059221;28;20194;-88
2022/01/04 00:46:45;;;;;;;2.85;1.50;;;10.30;74.80;;;9.60;59.99;94082.34;5075636;28;20599;-88
2022/01/04 00:49:12;;;;;;;2.10;1.50;;;10.30;74.80;;;9.61;60.01;94082.16;5075555;28;20247;-88
2022/01/04 00:51:43;;;;;;;1.63;1.25;;;10.20;74.70;;;9.59;60.16;94078.13;5092539;28;20717;-88
2022/01/04 00:54:13;;;;;;;2.10;1.60;;;10.20;74.70;;;9.57;59.90;94075.72;5092386;28;20210;-88
2022/01/04 00:56:41;;;;;;;1.80;1.23;;;10.20;74.70;;;9.55;60.14;94069.09;5092669;28;20214;-88
2022/01/04 00:59:09;;;;;;;2.78;1.50;;;10.20;74.70;;;9.53;60.00;94074.53;5076046;28;20214;-89
2022/01/04 01:01:37;;;;;;;3.88;1.40;;;10.20;74.70;;;9.47;59.92;94053.59;5090985;28;20221;-88
2022/01/04 01:04:07;;;;;;;3.03;1.50;;;10.20;74.80;;;9.52;60.11;94072.94;5084467;28;20625;-87
2022/01/04 01:06:34;;;;;;;2.90;1.77;;;10.10;74.60;;;9.50;60.12;94068.91;5073518;28;20212;-87
2022/01/04 01:09:04;;;;;;;3.22;1.50;;;10.10;74.70;;;9.52;60.00;94067.69;5075245;28;20281;-87
2022/01/04 01:11:32;;;;;;;1.35;1.20;;;10.10;74.60;;;9.53;60.23;94076.34;5058438;28;20218;-88
2022/01/04 01:14:00;;;;;;;2.28;1.60;;;10.10;74.60;;;9.51;60.04;94063.47;5074371;28;20268;-87
2022/01/04 01:16:27;;;;;;;3.15;1.50;;;10.10;74.60;;;9.56;60.11;94068.88;5075146;28;20233;-87
2022/01/04 01:18:54;;;;;;;1.83;1.40;;;10.10;74.60;;;9.56;60.13;94074.09;5075194;28;20222;-87
2022/01/04 01:21:22;;;;;;;1.52;1.40;;;10.10;74.60;;;9.60;60.12;94070.06;5057975;28;20222;-88
2022/01/04 01:23:50;;;;;;;3.58;1.50;;;10.10;74.60;;;9.62;60.10;94069.88;5058779;28;20244;-87
2022/01/04 01:26:17;;;;;;;2.95;1.63;;;10.10;74.60;;;9.65;60.14;94060.81;5074070;28;20221;-88
2022/01/04 01:28:45;;;;;;;3.03;1.33;;;10.20;74.80;;;9.67;60.21;94051.72;5058094;28;20283;-88
2022/01/04 01:31:13;;;;;;;2.83;1.50;;;10.20;74.70;;;9.75;59.88;94056.75;5091949;28;20218;-87
2022/01/04 01:33:40;;;;;;;2.97;1.45;;;10.20;74.80;;;9.77;60.05;94051.28;5063257;28;20198;-88
2022/01/04 01:36:08;;;;;;;3.08;1.60;;;10.20;74.70;;;9.78;60.00;94042.41;5091884;28;20288;-87
2022/01/04 01:38:35;;;;;;;2.40;1.50;;;10.30;74.80;;;9.86;59.83;94050.03;5087140;28;20214;-87
2022/01/04 01:41:03;;;;;;;4.25;2.50;;;10.30;74.80;;;9.88;59.80;94047.22;5078652;28;20756;-87
2022/01/04 01:43:30;;;;;;;2.30;1.70;;;10.30;74.80;;;9.91;60.01;94034.50;5070263;28;20728;-86
2022/01/04 01:45:58;;;;;;;1.25;1.15;;;10.40;74.90;;;9.96;59.77;94030.44;5078578;28;20264;-87
2022/01/04 01:48:26;;;;;;;1.60;1.20;;;10.40;74.90;;;9.98;59.94;94036.28;5086864;28;20190;-86
2022/01/04 01:50:54;;;;;;;2.92;1.40;;;10.40;74.90;;;9.96;59.86;94027.81;5086213;28;20259;-86
2022/01/04 01:53:22;;;;;;;1.90;1.40;;;10.50;75.00;;;9.94;59.87;94018.34;5077846;28;20244;-86
2022/01/04 01:55:49;;;;;;;1.80;1.40;;;10.40;74.90;;;9.98;60.41;94012.72;5052373;28;20214;-83
2022/01/04 01:58:16;;;;;;;1.75;1.48;;;10.40;74.90;;;9.98;60.09;94017.94;5061657;28;20207;-84
2022/01/04 02:00:43;;;;;;;2.00;1.30;;;10.50;75.00;;;9.96;59.88;94010.31;5061427;28;20271;-84
2022/01/04 02:03:11;;;;;;;1.88;1.30;;;10.50;75.00;;;9.94;60.24;94004.47;5061366;28;20289;-84
2022/01/04 02:05:39;;;;;;;2.42;1.52;;;10.50;75.00;;;9.95;60.15;93992.97;5061739;28;20221;-84
2022/01/04 02:08:07;;;;;;;1.50;1.40;;;10.50;75.00;;;9.93;60.17;94001.03;5067143;28;20459;-85
2022/01/04 02:10:34;;;;;;;1.60;1.20;;;10.50;75.00;;;9.92;60.15;93991.59;5075227;28;20650;-85
2022/01/04 02:13:02;;;;;;;3.03;1.45;;;10.50;75.00;;;9.89;60.32;93986.75;5055062;28;20211;-87
2022/01/04 02:15:32;;;;;;;1.88;1.40;;;10.40;74.90;;;9.91;60.39;93981.28;5054724;28;20706;-87
2022/01/04 02:18:00;;;;;;;1.50;1.40;;;10.40;74.90;;;9.90;60.37;93988.38;5072445;28;20226;-87
2022/01/04 02:20:27;;;;;;;2.92;1.77;;;10.50;75.00;;;9.88;60.40;93984.34;5074550;28;20222;-87
2022/01/04 02:22:55;;;;;;;2.50;1.50;;;10.40;75.00;;;9.86;60.60;93973.28;5058947;28;20302;-87
2022/01/04 02:25:22;;;;;;;1.50;1.40;;;10.40;75.00;;;9.81;60.47;93970.50;5059437;28;20242;-87
2022/01/04 02:27:52;;;;;;;1.40;1.30;;;10.40;75.10;;;9.84;60.53;93972.66;5076455;28;20217;-85
2022/01/04 02:30:20;;;;;;;1.73;1.50;;;10.40;75.30;;;9.81;60.63;93963.41;5058415;28;20214;-85
2022/01/04 02:32:48;;;;;;;1.98;1.60;;;10.40;75.30;;;9.74;60.63;93960.03;5074577;28;20198;-87
2022/01/04 02:35:19;;;;;;;1.63;1.45;;;10.40;75.30;;;9.79;60.83;93957.63;5075387;28;20629;-87
2022/01/04 02:37:47;;;;;;;2.53;1.85;;;10.40;75.40;;;9.71;60.58;93950.00;5076572;28;20226;-88
2022/01/04 02:40:15;;;;;;;2.60;1.63;;;10.40;75.40;;;9.69;60.83;93934.50;5059561;28;20351;-85
2022/01/04 02:42:42;;;;;;;3.50;1.58;;;10.30;75.40;;;9.72;60.79;93949.78;5058950;28;20619;-87
2022/01/04 02:45:10;;;;;;;3.25;1.65;;;10.30;76.20;;;9.70;60.82;93945.78;5076923;28;20217;-87
2022/01/04 02:47:38;;;;;;;1.85;1.50;;;10.30;75.50;;;9.69;60.86;93936.31;5077649;28;20199;-86
2022/01/04 02:50:07;;;;;;;3.47;1.60;;;10.40;75.70;;;9.69;61.24;93931.06;5094668;28;20265;-86
2022/01/04 02:52:34;;;;;;;3.90;1.90;;;10.30;75.70;;;9.70;61.14;93930.06;5074281;28;20230;-87
2022/01/04 02:55:06;;;;;;;2.22;1.73;;;10.30;75.70;;;9.69;61.43;93917.97;5074449;28;20215;-87
2022/01/04 02:57:35;;;;;;;2.05;1.50;;;10.30;75.80;;;9.61;61.10;93906.75;5057931;28;20304;-83
2022/01/04 03:00:07;;;;;;;2.10;1.63;;;10.30;75.80;;;9.66;61.28;93911.34;5057798;28;20226;-84
2022/01/04 03:02:35;;;;;;;1.50;1.40;;;10.20;75.80;;;9.64;61.10;93912.56;5047980;28;20187;-87
2022/01/04 03:05:03;;;;;;;1.67;1.40;;;10.20;75.70;;;9.62;61.20;93902.31;5060819;28;20234;-87
2022/01/04 03:07:31;;;;;;;2.17;1.40;;;10.20;75.80;;;9.60;61.18;93901.72;5077374;28;20237;-86
2022/01/04 03:09:58;;;;;;;1.67;1.20;;;10.20;75.80;;;9.59;61.25;93887.84;5077592;28;20578;-86
2022/01/04 03:12:26;;;;;;;2.67;1.52;;;10.20;75.80;;;9.58;61.29;93878.38;5077491;28;20299;-87
2022/01/04 03:14:53;;;;;;;2.50;1.35;;;10.20;75.90;;;9.52;61.19;93876.59;5073331;28;20214;-86
2022/01/04 03:17:20;;;;;;;2.13;1.40;;;10.20;76.00;;;9.54;61.41;93879.78;5057617;28;20195;-86
2022/01/04 03:19:47;;;;;;;2.08;1.42;;;10.20;76.00;;;9.51;61.32;93867.13;5056936;28;20337;-86
2022/01/04 03:22:14;;;;;;;3.20;1.70;;;10.10;75.90;;;9.55;61.46;93865.69;5076522;28;21764;-87
2022/01/04 03:24:41;;;;;;;2.55;1.30;;;10.10;76.00;;;9.48;61.58;93858.91;5094283;28;20239;-86
2022/01/04 03:27:08;;;;;;;3.30;1.20;;;10.20;76.10;;;9.52;61.58;93855.66;5077751;28;20233;-87
2022/01/04 03:29:37;;;;;;;2.78;1.42;;;10.10;76.00;;;9.51;61.42;93856.66;5061066;28;20524;-86
2022/01/04 03:32:05;;;;;;;2.47;1.80;;;10.10;76.90;;;9.49;61.44;93853.44;5077037;28;20206;-86
2022/01/04 03:34:33;;;;;;;1.52;1.20;;;10.10;76.10;;;9.43;61.57;93842.00;5076377;28;20211;-86
2022/01/04 03:37:00;;;;;;;1.40;1.17;;;10.10;76.20;;;9.45;61.73;93841.81;5076636;28;20720;-86
2022/01/04 03:39:27;;;;;;;1.52;1.30;;;10.10;76.20;;;9.42;61.79;93837.00;5060132;28;20627;-86
2022/01/04 03:41:55;;;;;;;1.63;1.40;;;10.00;76.20;;;9.42;61.36;93832.56;5090013;28;20215;-86
2022/01/04 03:44:22;;;;;;;1.55;1.40;;;10.00;76.20;;;9.37;61.79;93815.88;5056768;28;20293;-86
2022/01/04 03:46:53;;;;;;;1.77;1.30;;;10.00;76.20;;;9.42;61.67;93822.09;5057000;28;20256;-86
2022/01/04 03:49:20;;;;;;;1.73;1.25;;;10.00;76.30;;;9.42;61.55;93810.81;5056709;28;20192;-86
2022/01/04 03:51:47;;;;;;;1.67;1.30;;;10.00;76.30;;;9.41;61.60;93807.41;5060372;28;20217;-86
2022/01/04 03:54:14;;;;;;;1.40;1.30;;;10.00;76.30;;;9.41;61.91;93798.75;5076254;28;20241;-86
2022/01/04 03:56:42;;;;;;;1.55;1.30;;;10.00;76.40;;;9.41;61.96;93791.72;5076223;28;20244;-86
2022/01/04 03:59:09;;;;;;;2.08;1.35;;;10.00;76.30;;;9.39;61.65;93785.88;5075288;28;20218;-85
2022/01/04 04:01:36;;;;;;;3.13;1.40;;;10.00;76.40;;;9.40;61.89;93779.63;5083223;28;20195;-85
2022/01/04 04:04:04;;;;;;;2.03;1.20;;;10.00;76.40;;;9.39;61.78;93766.75;5058382;28;20436;-86
2022/01/04 04:06:31;;;;;;;1.98;1.20;;;10.00;76.50;;;9.40;62.05;93771.78;5074499;28;20302;-84
2022/01/04 04:08:58;;;;;;;3.00;1.30;;;10.00;76.50;;;9.40;61.89;93763.94;5056607;28;20218;-84
2022/01/04 04:11:26;;;;;;;1.40;1.30;;;10.00;76.50;;;9.39;62.02;93764.94;5073206;28;20213;-84
2022/01/04 04:13:54;;;;;;;2.10;1.20;;;10.00;76.50;;;9.37;62.10;93753.09;5064887;28;20200;-85
2022/01/04 04:16:21;;;;;;;1.23;1.17;;;10.00;76.50;;;9.39;61.94;93751.84;5072905;28;20267;-85
2022/01/04 04:18:48;;;;;;;2.60;1.50;;;10.00;76.60;;;9.42;62.07;93750.63;5056511;28;20672;-84
2022/01/04 04:21:15;;;;;;;2.40;1.52;;;10.00;76.50;;;9.38;62.21;93741.59;5081005;28;20242;-85
2022/01/04 04:23:43;;;;;;;1.50;1.40;;;10.00;76.60;;;9.39;62.32;93743.22;5061351;28;20215;-84
2022/01/04 04:26:10;;;;;;;2.05;1.13;;;10.00;76.60;;;9.40;62.21;93735.13;5058830;28;20245;-85
2022/01/04 04:28:37;;;;;;;1.38;1.20;;;10.00;76.70;;;9.39;62.27;93727.50;5083399;28;20211;-85
2022/01/04 04:31:05;;;;;;;2.25;1.33;;;10.00;76.70;;;9.42;62.18;93733.13;5081896;28;20273;-86
2022/01/04 04:33:33;;;;;;;1.40;1.30;;;10.00;76.70;;;9.43;62.25;93731.28;5067369;28;20202;-85
2022/01/04 04:36:00;;;;;;;1.65;1.08;;;10.10;76.80;;;9.44;62.30;93738.91;5074766;28;20248;-86
2022/01/04 04:38:27;;;;;;;1.30;1.10;;;10.00;76.80;;;9.43;62.40;93723.44;5090476;28;20692;-86
2022/01/04 04:40:55;;;;;;;2.28;1.10;;;10.00;76.70;;;9.44;62.16;93720.59;5056329;28;20238;-85
2022/01/04 04:43:22;;;;;;;1.13;1.05;;;10.00;76.80;;;9.45;62.31;93716.19;5073402;28;20726;-83
2022/01/04 04:45:49;;;;;;;1.10;1.02;;;10.00;76.80;;;9.45;62.33;93718.81;5056845;28;20222;-87
2022/01/04 04:48:16;;;;;;;2.38;1.20;;;10.00;76.90;;;9.45;62.38;93716.19;5073904;28;20652;-86
2022/01/04 04:50:44;;;;;;;1.33;1.23;;;10.00;76.80;;;9.47;62.25;93721.19;5069862;28;20218;-86
2022/01/04 04:53:11;;;;;;;1.23;1.13;;;10.00;76.90;;;9.45;62.40;93705.72;5053583;28;20210;-86
2022/01/04 04:55:38;;;;;;;1.50;1.10;;;10.00;76.90;;;9.51;62.45;93723.19;5070863;28;20215;-86
2022/01/04 04:58:05;;;;;;;1.90;1.30;;;10.00;77.00;;;9.50;62.26;93715.53;5055400;28;20708;-86
2022/01/04 05:00:32;;;;;;;1.40;1.30;;;10.00;77.00;;;9.51;62.37;93717.13;5069591;28;20302;-86
2022/01/04 05:02:59;;;;;;;2.10;1.20;;;10.00;77.00;;;9.51;62.46;93701.41;5075877;28;20198;-87
2022/01/04 05:05:27;;;;;;;0.93;0.93;;;10.10;77.10;;;9.50;62.34;93703.25;5092415;28;20684;-87
2022/01/04 05:07:54;;;;;;;1.50;1.40;;;10.10;77.10;;;9.54;62.47;93701.78;5075703;28;20198;-86
2022/01/04 05:10:21;;;;;;;1.75;1.15;;;10.00;77.10;;;9.54;62.71;93695.78;5093478;28;20218;-87
2022/01/04 05:12:48;;;;;;;1.40;1.20;;;10.00;77.10;;;9.59;62.68;93688.06;5079706;28;20214;-86
2022/01/04 05:15:16;;;;;;;1.30;1.20;;;10.10;77.30;;;9.60;62.71;93685.22;5063064;28;20214;-87
2022/01/04 05:17:43;;;;;;;1.23;1.17;;;10.10;77.30;;;9.60;62.97;93669.50;5080249;28;20202;-86
2022/01/04 05:20:10;;;;;;;1.30;1.20;;;10.10;77.40;;;9.66;62.81;93665.25;5079827;28;20230;-87
2022/01/04 05:22:38;;;;;;;1.10;1.10;;;10.10;77.40;;;9.66;62.78;93661.84;5096825;28;20206;-86
2022/01/04 05:25:06;;;;;;;1.10;1.00;;;10.20;77.50;;;9.71;62.91;93662.75;5079606;28;20214;-87
2022/01/04 05:27:33;;;;;;;1.20;1.10;;;10.20;77.50;;;9.76;62.94;93665.56;5080098;28;20296;-87
2022/01/04 05:30:01;;;;;;;1.10;1.00;;;10.20;77.50;;;9.79;63.10;93661.69;5095381;28;20218;-87
2022/01/04 05:32:28;;;;;;;1.00;0.90;;;10.30;77.60;;;9.83;63.19;93655.00;5078959;28;20191;-87
2022/01/04 05:34:55;;;;;;;1.27;1.17;;;10.30;77.70;;;9.86;62.89;93641.47;5079352;28;20217;-86
2022/01/04 05:37:22;;;;;;;1.20;1.10;;;10.30;77.60;;;9.92;63.02;93650.25;5078979;28;20202;-87
2022/01/04 05:39:49;;;;;;;1.27;1.17;;;10.30;77.60;;;9.94;62.79;93643.78;5079475;28;20226;-86
2022/01/04 05:42:17;;;;;;;1.10;1.10;;;10.40;77.70;;;9.99;62.81;93635.28;5078927;28;20230;-87
2022/01/04 05:44:44;;;;;;;1.02;1.02;;;10.40;77.60;;;10.00;62.93;93634.25;5095587;28;20218;-87
2022/01/04 05:47:12;;;;;;;5.68;2.40;;;10.50;78.50;;;9.99;63.02;93621.41;5078833;28;20244;-84
2022/01/04 05:49:39;;;;;;;3.78;2.00;;;10.40;77.60;;;10.05;62.84;93618.69;5078862;28;20207;-85
2022/01/04 05:52:06;;;;;;;2.22;1.50;;;10.50;77.70;;;10.07;62.73;93610.59;5079209;28;20570;-86
2022/01/04 05:54:35;;;;;;;1.83;1.35;;;10.50;77.70;;;10.09;63.35;93605.94;5079366;28;20226;-87
2022/01/04 05:57:02;;;;;;;1.52;1.27;;;10.50;77.60;;;10.08;62.94;93601.72;5079076;28;20700;-87
2022/01/04 05:59:29;;;;;;;1.38;1.25;;;10.50;77.50;;;10.08;62.77;93610.38;5061474;28;20214;-86
2022/01/04 06:01:57;;;;;;;1.15;1.15;;;10.60;77.60;;;10.09;62.71;93612.00;5079270;28;20198;-87
2022/01/04 06:04:24;;;;;;;1.33;1.23;;;10.60;77.70;;;10.11;62.89;93617.00;5095731;28;20190;-86
2022/01/04 06:06:51;;;;;;;1.27;1.20;;;10.60;77.60;;;10.09;62.98;93605.94;5058780;28;20226;-83
2022/01/04 06:09:23;;;;;;;1.25;1.10;;;10.60;77.60;;;10.12;62.84;93597.66;5074870;28;20282;-84
2022/01/04 06:17:08;;;;;;;1.17;1.17;;;10.60;77.60;;;10.17;63.23;93583.91;5068203;28;20618;-85
2022/01/04 06:19:36;;;;;;;1.10;1.10;;;10.60;77.60;;;10.19;63.08;93582.66;5078335;28;20337;-85
2022/01/04 06:22:03;;;;;;;1.30;1.20;;;10.60;77.60;;;10.19;63.14;93580.03;5094448;28;20203;-85
2022/01/04 06:24:31;;;;;;;1.08;1.08;;;10.70;77.60;;;10.22;63.07;93584.03;5094999;28;20204;-87
2022/01/04 06:26:59;;;;;;;1.40;1.30;;;10.70;77.70;;;10.26;63.06;93579.91;5077923;28;20198;-85
2022/01/04 06:29:26;;;;;;;1.40;1.30;;;10.70;77.70;;;10.28;63.26;93583.13;5094781;28;20190;-86
2022/01/04 06:31:53;;;;;;;1.13;1.13;;;10.70;77.70;;;10.32;63.07;93579.03;5094532;28;20293;-85
2022/01/04 06:34:20;;;;;;;1.20;1.20;;;10.80;77.90;;;10.34;63.05;93574.38;5094438;28;20205;-84
2022/01/04 06:36:47;;;;;;;1.27;1.17;;;10.80;77.90;;;10.30;63.17;93560.13;5087752;28;20231;-84
2022/01/04 06:39:14;;;;;;;1.58;1.30;;;10.80;77.90;;;10.36;63.32;93561.88;5061170;28;20695;-84
2022/01/04 06:41:42;;;;;;;1.17;1.08;;;10.80;77.80;;;10.36;63.12;93559.25;5061156;28;20194;-83
2022/01/04 06:44:09;;;;;;;1.00;1.00;;;10.80;77.80;;;10.38;63.20;93548.53;5060763;28;20260;-84
2022/01/04 06:46:38;;;;;;;1.00;1.00;;;10.80;77.80;;;10.36;63.15;93545.31;5077335;28;20214;-83
2022/01/04 06:49:05;;;;;;;1.20;1.10;;;10.90;77.80;;;10.36;62.92;93548.78;5111004;28;20207;-83
2022/01/04 06:51:32;;;;;;;1.15;1.13;;;10.80;77.70;;;10.35;62.99;93549.78;5055894;28;20310;-83
2022/01/04 06:54:00;;;;;;;1.40;1.30;;;10.90;77.80;;;10.30;63.17;93536.53;5041136;28;20223;-84
2022/01/04 06:56:27;;;;;;;1.00;1.00;;;10.90;77.70;;;10.29;63.10;93531.50;5067901;28;20226;-83
2022/01/04 06:58:54;;;;;;;1.45;1.35;;;10.90;77.70;;;10.31;62.95;93538.13;5060782;28;20254;-84
2022/01/04 07:01:22;;;;;;;1.10;1.10;;;10.90;77.70;;;10.27;63.12;93526.50;5077768;28;20242;-84
2022/01/04 07:03:49;;;;;;;1.10;1.00;;;10.80;77.70;;;10.26;63.22;93532.75;5077526;28;20707;-84
2022/01/04 07:06:17;;;;;;;1.20;1.10;;;10.90;77.80;;;10.27;62.97;93525.72;5077288;28;20244;-84
2022/01/04 07:08:45;;;;;;;1.20;1.10;;;10.80;77.80;;;10.30;63.24;93535.72;5072853;28;20198;-83
2022/01/04 07:11:13;;;;;;;1.92;1.10;;;10.80;77.80;;;10.25;63.45;93521.47;5057384;28;20215;-84
2022/01/04 07:13:42;;;;;;;1.23;1.20;;;10.80;77.80;;;10.31;63.34;93543.34;5076380;28;20572;-83
2022/01/04 07:16:10;;;;;;;1.00;1.00;;;10.90;77.90;;;10.28;63.29;93535.97;5093683;28;20309;-84
2022/01/04 07:18:37;;;;;;;1.10;1.00;;;10.80;77.90;;;10.29;63.36;93531.50;5075086;28;20213;-85
2022/01/04 07:21:04;;;;;;;1.40;1.30;;;10.90;78.00;;;10.35;63.48;93536.66;5093009;28;20232;-84
2022/01/04 07:23:33;;;;;;;1.45;1.35;;;10.80;77.90;;;10.36;63.67;93522.56;5056975;28;20195;-84
2022/01/04 07:26:00;;;;;;;2.45;1.45;;;10.90;78.10;;;10.43;63.50;93525.06;5056971;28;20218;-84
2022/01/04 07:28:28;;;;;;;1.33;1.23;;;10.90;78.10;;;10.47;63.72;93520.19;5073410;28;20199;-84
2022/01/04 07:30:55;;;;;;;1.40;1.30;;;10.90;78.20;;;10.52;63.57;93515.88;5054940;28;20225;-85
2022/01/04 07:33:22;;;;;;;1.05;1.02;;;11.00;78.30;;;10.54;63.44;93516.44;5055913;28;20209;-85
2022/01/04 07:35:49;;;;;;;1.35;1.20;;;10.90;78.20;;;10.57;63.55;93508.13;5059366;28;20214;-84
2022/01/04 07:38:17;;;;;;;1.10;1.10;;;11.00;78.10;;;10.63;62.80;93521.34;5060300;28;20202;-85
2022/01/04 07:40:44;;;;;;;1.40;1.30;;;11.00;78.10;;;10.66;63.36;93513.81;5075149;28;20313;-84
2022/01/04 07:43:12;;;;;;;1.00;1.00;;;11.10;78.10;;;10.67;63.32;93519.88;5093063;28;20255;-84
2022/01/04 07:45:40;;;;;;;1.13;1.10;;;11.10;78.10;;;10.69;63.41;93516.00;5093081;28;20309;-84
2022/01/04 07:48:10;;;;;;;1.20;1.20;;;11.10;78.10;;;10.71;63.22;93513.94;5056078;28;20210;-84
2022/01/04 07:50:39;;;;;;;1.40;1.30;;;11.20;78.10;;;10.72;63.40;93512.13;5060370;28;20293;-84
2022/01/04 07:53:08;;;;;;;1.10;1.10;;;11.20;78.00;;;10.71;63.63;93518.41;5059701;28;20624;-85
2022/01/04 07:55:35;;;;;;;1.40;1.30;;;11.20;78.00;;;10.73;63.14;93513.72;5093340;28;20218;-85
2022/01/04 07:58:02;;;;;;;1.10;1.10;;;11.20;78.00;;;10.70;63.25;93522.03;5059459;28;20293;-85
2022/01/04 08:00:30;;;;;;;1.15;1.10;;;11.20;77.90;;;10.69;63.49;93507.31;5093225;28;20238;-85
2022/01/04 08:02:57;;;;;;;1.45;1.35;;;11.20;78.00;;;10.68;63.63;93514.41;5075492;28;20198;-84
2022/01/04 08:05:25;;;;;;;1.30;1.30;;;11.20;78.00;;;10.64;63.58;93497.50;5092667;28;20669;-84
2022/01/04 08:07:52;;;;;;;1.63;1.42;;;11.20;78.00;;;10.63;63.42;93498.56;5092504;28;20225;-84
2022/01/04 08:10:19;;;;;;;2.00;1.40;;;11.20;78.10;;;10.60;64.15;93493.75;5059336;28;20241;-84
2022/01/04 08:12:47;;;;;;;2.15;1.40;;;11.20;78.10;;;10.57;63.75;93488.97;5089030;28;20230;-84
2022/01/04 08:15:14;;;;;;;1.92;1.42;;;11.20;78.10;;;10.56;63.73;93479.53;5092007;28;20214;-84
2022/01/04 08:17:41;;;;;;;1.50;1.27;;;11.20;78.20;;;10.53;64.01;93479.97;5055863;28;20203;-83
2022/01/04 08:20:09;;;;;;;28.05;12.32;;;11.10;78.20;;;10.52;63.81;93476.56;5072044;28;20597;-84
2022/01/04 08:22:37;;;;;;;12.45;7.43;;;11.10;78.30;;;10.53;64.07;93483.41;5066934;28;20194;-82
2022/01/04 08:25:10;;;;;;;3.92;2.90;;;11.10;78.30;;;10.52;63.88;93473.13;5075391;28;20245;-84
2022/01/04 08:27:39;;;;;;;1.77;1.65;;;11.10;78.40;;;10.52;64.13;93480.97;5075458;28;20186;-83
2022/01/04 08:30:10;;;;;;;1.75;1.65;;;11.10;78.30;;;10.51;64.11;93476.75;5083989;28;20817;-83
2022/01/04 08:32:38;;;;;;;3.40;1.70;;;11.10;78.40;;;10.51;64.24;93474.13;5075988;28;20229;-83
2022/01/04 08:35:07;;;;;;;3.65;2.28;;;11.10;78.40;;;10.53;64.23;93479.97;5058965;28;20214;-84
2022/01/04 08:37:35;;;;;;;1.65;1.55;;;11.10;78.50;;;10.53;64.33;93467.66;5071220;28;20211;-83
2022/01/04 08:40:05;;;;;;;2.13;1.92;;;11.10;78.60;;;10.55;64.50;93470.84;5039014;28;20251;-83
2022/01/04 08:42:37;;;;;;;2.10;1.90;;;11.10;78.70;;;10.55;64.40;93459.56;5055807;28;20187;-83
2022/01/04 08:45:07;;;;;;;1.67;1.58;;;11.10;78.70;;;10.59;64.24;93462.53;5071563;28;20234;-82
2022/01/04 08:47:35;;;;;;;2.85;2.30;;;11.10;78.80;;;10.63;64.22;93459.22;5055649;28;20195;-83
2022/01/04 08:50:06;;;;;;;2.90;2.60;;;11.10;78.70;;;10.63;64.32;93442.69;5072026;28;20689;-82
2022/01/04 08:52:33;;;;;;;2.10;1.85;;;11.10;78.80;;;10.66;64.20;93437.00;5055839;28;20309;-82
2022/01/04 08:55:03;;;;;;;27.90;3.28;;;11.10;78.70;;;10.72;64.23;93429.00;5056913;28;20278;-84
2022/01/04 08:57:31;;;;;;;27.17;4.00;;;11.10;78.90;;;10.76;64.20;93433.81;5072301;28;20203;-84
2022/01/04 08:59:58;;;;;;;68.90;6.88;;;11.20;78.90;;;10.80;64.19;93424.44;5072212;28;20222;-84
2022/01/04 09:02:25;;;;;;;15.30;3.30;;;11.20;78.90;;;10.84;64.16;93418.50;5055807;28;20194;-84
2022/01/04 09:04:53;;;;;;;36.75;4.60;;;11.20;78.90;;;10.88;63.96;93416.22;5081756;28;20217;-85
2022/01/04 09:07:20;;;;;;;201.68;16.15;;;11.30;79.00;;;10.93;64.26;93418.16;5092169;28;20202;-85
2022/01/04 09:09:49;;;;;;;22.90;3.70;;;11.40;79.00;;;11.02;64.29;93417.56;5091983;28;20781;-85
2022/01/04 09:12:41;;;;;;;284.15;20.65;;;11.30;79.00;;;11.10;64.22;93413.00;5077191;28;20259;-84
2022/01/04 09:20:42;;;;;;;78.55;7.75;;;11.70;79.20;;;11.35;64.14;93394.31;5077249;28;20324;-84
2022/01/04 09:23:09;;;;;;;4.03;2.03;;;11.70;79.20;;;11.45;63.85;93402.38;5075529;28;20224;-84
2022/01/04 09:25:36;;;;;;;23.98;3.22;;;11.60;79.20;;;11.58;63.90;93387.38;5074453;28;20590;-84
2022/01/04 09:28:08;;;;;;;64.40;6.35;;;11.80;79.40;;;11.68;64.05;93390.97;5092626;28;20196;-84
2022/01/04 09:30:36;;;;;;;11.95;2.53;;;11.90;79.60;;;11.81;63.98;93391.72;5092072;28;20213;-83
2022/01/04 09:33:05;;;;;;;11.23;2.22;;;11.90;79.50;;;11.89;63.81;93383.44;5057823;28;20210;-83
2022/01/04 09:35:37;;;;;;;21.73;5.95;;;12.00;79.40;;;11.94;63.59;93382.75;5071822;28;20221;-84
2022/01/04 09:38:05;;;;;;;11.35;3.35;;;12.10;79.20;;;12.04;63.60;93377.66;5071275;28;20195;-84
2022/01/04 09:40:35;;;;;;;7.95;3.25;;;12.20;79.20;;;12.13;63.54;93376.25;5088568;28;20230;-84
2022/01/04 09:43:05;;;;;;;15.10;2.50;;;12.20;79.00;;;12.21;63.34;93366.38;5061365;28;20226;-84
2022/01/04 09:45:35;;;;;;;188.32;18.85;;;12.30;78.90;;;12.26;63.13;93371.69;5075275;28;20230;-83
2022/01/04 09:48:05;;;;;;;17.95;4.85;;;12.50;78.90;;;12.29;63.03;93360.69;5078840;28;20622;-85
2022/01/04 09:50:36;;;;;;;26.92;4.00;;;12.50;78.60;;;12.36;62.88;93358.69;5055129;28;20218;-84
2022/01/04 09:53:06;;;;;;;17.83;3.47;;;12.60;78.50;;;12.39;62.72;93360.03;5071782;28;20589;-83
2022/01/04 09:55:42;;;;;;;67.00;8.25;;;12.60;78.40;;;12.42;62.93;93355.09;5085688;28;20242;-84
2022/01/04 09:58:10;;;;;;;32.45;6.07;;;12.70;78.30;;;12.42;62.28;93349.06;5061257;28;20625;-85
2022/01/04 10:00:38;;;;;;;43.22;6.45;;;12.70;78.10;;;12.47;62.49;93338.59;5095615;28;20221;-84
2022/01/04 10:03:25;;;;;;;25.88;3.90;;;12.70;77.90;;;12.52;62.39;93330.00;5078587;28;20216;-85
2022/01/04 10:06:14;;;;;;;15.82;3.33;;;12.80;78.70;;;12.51;62.05;93331.03;5095529;28;20249;-83
2022/01/04 10:09:08;;;;;;;11.00;2.25;;;12.80;77.60;;;12.56;62.00;93317.94;5063200;28;20252;-84
2022/01/04 10:11:47;;;;;;;16.02;2.92;;;12.90;77.70;;;12.65;62.31;93314.63;5079216;28;20272;-83
2022/01/04 10:14:38;;;;;;;12.70;2.30;;;12.90;77.90;;;12.77;62.35;93311.13;5088287;28;20193;-84
2022/01/04 10:17:10;;;;;;;4.35;1.67;;;13.00;77.80;;;12.90;62.18;93300.22;5082487;28;20191;-84
2022/01/04 10:19:43;;;;;;;6.50;1.35;;;13.10;78.10;;;12.95;61.78;93281.03;5074899;28;20238;-84
2022/01/04 10:22:35;;;;;;;6.32;1.20;;;13.20;77.90;;;13.08;61.95;93288.56;5061352;28;20195;-84
2022/01/04 10:25:02;;;;;;;8.13;1.73;;;13.20;77.80;;;13.20;61.89;93271.84;5078237;28;20317;-84
2022/01/04 10:27:56;;;;;;;13.32;2.50;;;13.30;78.00;;;13.25;61.64;93261.34;5095279;28;20190;-84
2022/01/04 10:30:31;;;;;;;5.57;2.33;;;13.40;77.60;;;13.37;61.21;93253.31;5078433;28;20258;-84
2022/01/04 10:33:09;;;;;;;6.57;2.42;;;13.50;77.40;;;13.45;61.25;93247.59;5093224;28;20189;-84
2022/01/04 10:35:39;;;;;;;14.45;3.88;;;13.60;77.20;;;13.54;61.06;93237.41;5095344;28;20209;-84
2022/01/04 10:38:43;;;;;;;36.97;10.05;;;13.70;77.20;;;13.63;60.96;93237.75;5090916;28;20214;-84
2022/01/04 10:41:16;;;;;;;11.68;3.60;;;13.70;77.20;;;13.68;60.98;93225.38;5028941;28;20230;-83
2022/01/04 10:43:53;;;;;;;12.60;2.58;;;13.80;78.10;;;13.70;60.56;93233.06;5111436;28;20197;-84